sensor_id;sensor_type;location;lat;lon;timestamp;temperature;humidity
26641;DHT22;14269;47.358;0.724;2022-12-18T00:00:16;0.0;64.0
26641;DHT22;14269;47.358;0.724;2022-12-18T00:03:04;0.0;64.0
26641;DHT22;14269;47.358;0.724;2022-12-18T00:05:36;0.0;64.0
26641;DHT22;14269;47.358;0.724;2022-12-18T00:08:25;0.0;64.0
26641;DHT22;14269;47.358;0.724;2022-12-18T00:11:03;0.0;64.0
26641;DHT22;14269;47.358;0.724;2022-12-18T00:13:49;0.0;64.0
26641;DHT22;14269;47.358;0.724;2022-12-18T00:16:22;0.0;64.0
26641;DHT22;14269;47.358;0.724;2022-12-18T00:19:21;0.0;64.0
26641;DHT22;14269;47.358;0.724;2022-12-18T00:21:53;0.0;64.0
26641;DHT22;14269;47.358;0.724;2022-12-18T00:24:54;0.0;64.0
26641;DHT22;14269;47.358;0.724;2022-12-18T00:27:25;0.0;64.0
26641;DHT22;14269;47.358;0.724;2022-12-18T00:30:27;0.0;64.0
26641;DHT22;14269;47.358;0.724;2022-12-18T00:32:58;-1.0;64.0
26641;DHT22;14269;47.358;0.724;2022-12-18T00:35:53;-1.0;65.0
26641;DHT22;14269;47.358;0.724;2022-12-18T00:38:25;0.0;64.0
26641;DHT22;14269;47.358;0.724;2022-12-18T00:43:02;0.0;64.0
26641;DHT22;14269;47.358;0.724;2022-12-18T00:45:39;-1.0;64.0
26641;DHT22;14269;47.358;0.724;2022-12-18T00:48:14;-1.0;64.0
26641;DHT22;14269;47.358;0.724;2022-12-18T00:50:47;-1.0;64.0
26641;DHT22;14269;47.358;0.724;2022-12-18T00:53:26;-1.0;64.0
26641;DHT22;14269;47.358;0.724;2022-12-18T00:55:58;-1.0;64.0
26641;DHT22;14269;47.358;0.724;2022-12-18T00:58:35;-1.0;65.0
26641;DHT22;14269;47.358;0.724;2022-12-18T01:01:14;-1.0;65.0
26641;DHT22;14269;47.358;0.724;2022-12-18T01:03:46;-1.0;65.0
26641;DHT22;14269;47.358;0.724;2022-12-18T01:06:17;-1.0;64.0
26641;DHT22;14269;47.358;0.724;2022-12-18T01:08:58;-1.0;64.0
26641;DHT22;14269;47.358;0.724;2022-12-18T01:11:30;-1.0;64.0
26641;DHT22;14269;47.358;0.724;2022-12-18T01:14:31;-1.0;65.0
26641;DHT22;14269;47.358;0.724;2022-12-18T01:17:03;0.0;64.0
26641;DHT22;14269;47.358;0.724;2022-12-18T01:20:05;0.0;64.0
26641;DHT22;14269;47.358;0.724;2022-12-18T01:22:46;0.0;63.0
26641;DHT22;14269;47.358;0.724;2022-12-18T01:25:37;-1.0;64.0
26641;DHT22;14269;47.358;0.724;2022-12-18T01:28:08;-1.0;63.0
26641;DHT22;14269;47.358;0.724;2022-12-18T01:31:12;-1.0;64.0
26641;DHT22;14269;47.358;0.724;2022-12-18T01:33:52;-1.0;64.0
26641;DHT22;14269;47.358;0.724;2022-12-18T01:36:43;-1.0;64.0
26641;DHT22;14269;47.358;0.724;2022-12-18T01:39:15;-1.0;63.0
26641;DHT22;14269;47.358;0.724;2022-12-18T01:42:12;-1.0;63.0
26641;DHT22;14269;47.358;0.724;2022-12-18T01:44:57;0.0;64.0
26641;DHT22;14269;47.358;0.724;2022-12-18T01:47:34;-1.0;63.0
26641;DHT22;14269;47.358;0.724;2022-12-18T01:50:14;-1.0;63.0
26641;DHT22;14269;47.358;0.724;2022-12-18T01:52:55;-1.0;63.0
26641;DHT22;14269;47.358;0.724;2022-12-18T01:55:37;-1.0;63.0
26641;DHT22;14269;47.358;0.724;2022-12-18T01:58:13;0.0;63.0
26641;DHT22;14269;47.358;0.724;2022-12-18T02:00:44;0.0;63.0
26641;DHT22;14269;47.358;0.724;2022-12-18T02:03:35;-1.0;62.0
26641;DHT22;14269;47.358;0.724;2022-12-18T02:06:11;-1.0;63.0
26641;DHT22;14269;47.358;0.724;2022-12-18T02:09:02;-1.0;63.0
26641;DHT22;14269;47.358;0.724;2022-12-18T02:11:42;-1.0;63.0
26641;DHT22;14269;47.358;0.724;2022-12-18T02:14:33;-1.0;63.0
26641;DHT22;14269;47.358;0.724;2022-12-18T02:17:12;-1.0;63.0
26641;DHT22;14269;47.358;0.724;2022-12-18T02:20:07;-1.0;63.0
26641;DHT22;14269;47.358;0.724;2022-12-18T02:22:53;-1.0;63.0
26641;DHT22;14269;47.358;0.724;2022-12-18T02:25:44;-1.0;63.0
26641;DHT22;14269;47.358;0.724;2022-12-18T02:28:29;-1.0;64.0
26641;DHT22;14269;47.358;0.724;2022-12-18T02:31:10;-1.0;63.0
26641;DHT22;14269;47.358;0.724;2022-12-18T02:33:49;-1.0;63.0
26641;DHT22;14269;47.358;0.724;2022-12-18T02:36:41;-1.0;63.0
26641;DHT22;14269;47.358;0.724;2022-12-18T02:39:22;-1.0;63.0
26641;DHT22;14269;47.358;0.724;2022-12-18T02:42:13;-1.0;63.0
26641;DHT22;14269;47.358;0.724;2022-12-18T02:44:46;-1.0;63.0
26641;DHT22;14269;47.358;0.724;2022-12-18T02:47:42;-1.0;64.0
26641;DHT22;14269;47.358;0.724;2022-12-18T02:50:26;-1.0;63.0
26641;DHT22;14269;47.358;0.724;2022-12-18T02:53:18;-1.0;63.0
26641;DHT22;14269;47.358;0.724;2022-12-18T02:56:00;-1.0;63.0
26641;DHT22;14269;47.358;0.724;2022-12-18T02:58:49;-1.0;63.0
26641;DHT22;14269;47.358;0.724;2022-12-18T03:01:31;-1.0;63.0
26641;DHT22;14269;47.358;0.724;2022-12-18T03:04:24;-1.0;63.0
26641;DHT22;14269;47.358;0.724;2022-12-18T03:07:02;-1.0;63.0
26641;DHT22;14269;47.358;0.724;2022-12-18T03:09:51;-1.0;63.0
26641;DHT22;14269;47.358;0.724;2022-12-18T03:12:35;-1.0;63.0
26641;DHT22;14269;47.358;0.724;2022-12-18T03:15:27;-1.0;63.0
26641;DHT22;14269;47.358;0.724;2022-12-18T03:18:10;-1.0;63.0
26641;DHT22;14269;47.358;0.724;2022-12-18T03:20:58;0.0;63.0
26641;DHT22;14269;47.358;0.724;2022-12-18T03:23:40;0.0;63.0
26641;DHT22;14269;47.358;0.724;2022-12-18T03:26:30;0.0;63.0
26641;DHT22;14269;47.358;0.724;2022-12-18T03:29:14;0.0;62.0
26641;DHT22;14269;47.358;0.724;2022-12-18T03:32:06;0.0;63.0
26641;DHT22;14269;47.358;0.724;2022-12-18T03:34:46;0.0;63.0
26641;DHT22;14269;47.358;0.724;2022-12-18T03:37:35;0.0;63.0
26641;DHT22;14269;47.358;0.724;2022-12-18T03:40:08;0.0;63.0
26641;DHT22;14269;47.358;0.724;2022-12-18T03:43:11;0.0;63.0
26641;DHT22;14269;47.358;0.724;2022-12-18T03:45:53;0.0;63.0
26641;DHT22;14269;47.358;0.724;2022-12-18T03:48:44;0.0;63.0
26641;DHT22;14269;47.358;0.724;2022-12-18T03:51:26;0.0;63.0
26641;DHT22;14269;47.358;0.724;2022-12-18T03:54:15;0.0;63.0
26641;DHT22;14269;47.358;0.724;2022-12-18T03:57:00;0.0;64.0
26641;DHT22;14269;47.358;0.724;2022-12-18T03:59:43;0.0;63.0
26641;DHT22;14269;47.358;0.724;2022-12-18T04:02:24;0.0;63.0
26641;DHT22;14269;47.358;0.724;2022-12-18T04:05:15;0.0;64.0
26641;DHT22;14269;47.358;0.724;2022-12-18T04:07:57;0.0;63.0
26641;DHT22;14269;47.358;0.724;2022-12-18T04:10:48;0.0;63.0
26641;DHT22;14269;47.358;0.724;2022-12-18T04:13:23;0.0;63.0
26641;DHT22;14269;47.358;0.724;2022-12-18T04:16:21;0.0;63.0
26641;DHT22;14269;47.358;0.724;2022-12-18T04:18:53;0.0;63.0
26641;DHT22;14269;47.358;0.724;2022-12-18T04:21:54;0.0;63.0
26641;DHT22;14269;47.358;0.724;2022-12-18T04:24:25;0.0;63.0
26641;DHT22;14269;47.358;0.724;2022-12-18T04:27:27;0.0;63.0
26641;DHT22;14269;47.358;0.724;2022-12-18T04:29:58;0.0;63.0
26641;DHT22;14269;47.358;0.724;2022-12-18T04:33:00;0.0;64.0
26641;DHT22;14269;47.358;0.724;2022-12-18T04:35:31;0.0;64.0
26641;DHT22;14269;47.358;0.724;2022-12-18T04:38:33;0.0;63.0
26641;DHT22;14269;47.358;0.724;2022-12-18T04:41:04;0.0;63.0
26641;DHT22;14269;47.358;0.724;2022-12-18T04:44:05;0.0;63.0
26641;DHT22;14269;47.358;0.724;2022-12-18T04:46:37;0.0;63.0
26641;DHT22;14269;47.358;0.724;2022-12-18T04:49:38;0.0;63.0
26641;DHT22;14269;47.358;0.724;2022-12-18T04:52:10;0.0;63.0
26641;DHT22;14269;47.358;0.724;2022-12-18T04:55:11;0.0;63.0
26641;DHT22;14269;47.358;0.724;2022-12-18T04:57:43;0.0;63.0
26641;DHT22;14269;47.358;0.724;2022-12-18T05:00:44;0.0;63.0
26641;DHT22;14269;47.358;0.724;2022-12-18T05:03:16;0.0;62.0
26641;DHT22;14269;47.358;0.724;2022-12-18T05:06:17;0.0;62.0
26641;DHT22;14269;47.358;0.724;2022-12-18T05:08:49;0.0;62.0
26641;DHT22;14269;47.358;0.724;2022-12-18T05:11:50;0.0;62.0
26641;DHT22;14269;47.358;0.724;2022-12-18T05:14:22;0.0;63.0
26641;DHT22;14269;47.358;0.724;2022-12-18T05:17:23;0.0;63.0
26641;DHT22;14269;47.358;0.724;2022-12-18T05:19:55;0.0;62.0
26641;DHT22;14269;47.358;0.724;2022-12-18T05:22:50;0.0;63.0
26641;DHT22;14269;47.358;0.724;2022-12-18T05:25:23;0.0;63.0
26641;DHT22;14269;47.358;0.724;2022-12-18T05:28:11;0.0;63.0
26641;DHT22;14269;47.358;0.724;2022-12-18T05:30:47;0.0;63.0
26641;DHT22;14269;47.358;0.724;2022-12-18T05:33:34;0.0;63.0
26641;DHT22;14269;47.358;0.724;2022-12-18T05:36:14;0.0;63.0
26641;DHT22;14269;47.358;0.724;2022-12-18T05:38:53;0.0;62.0
26641;DHT22;14269;47.358;0.724;2022-12-18T05:41:24;0.0;63.0
26641;DHT22;14269;47.358;0.724;2022-12-18T05:44:26;0.0;62.0
26641;DHT22;14269;47.358;0.724;2022-12-18T05:46:58;0.0;62.0
26641;DHT22;14269;47.358;0.724;2022-12-18T05:49:52;0.0;62.0
26641;DHT22;14269;47.358;0.724;2022-12-18T05:52:24;0.0;62.0
26641;DHT22;14269;47.358;0.724;2022-12-18T05:55:26;0.0;62.0
26641;DHT22;14269;47.358;0.724;2022-12-18T05:57:57;0.0;62.0
26641;DHT22;14269;47.358;0.724;2022-12-18T06:00:52;0.0;62.0
26641;DHT22;14269;47.358;0.724;2022-12-18T06:03:24;0.0;62.0
26641;DHT22;14269;47.358;0.724;2022-12-18T06:06:27;0.0;62.0
26641;DHT22;14269;47.358;0.724;2022-12-18T06:09:09;0.0;62.0
26641;DHT22;14269;47.358;0.724;2022-12-18T06:11:53;0.0;62.0
26641;DHT22;14269;47.358;0.724;2022-12-18T06:14:25;0.0;62.0
26641;DHT22;14269;47.358;0.724;2022-12-18T06:17:13;0.0;62.0
26641;DHT22;14269;47.358;0.724;2022-12-18T06:19:45;0.0;61.0
26641;DHT22;14269;47.358;0.724;2022-12-18T06:22:35;0.0;62.0
26641;DHT22;14269;47.358;0.724;2022-12-18T06:25:07;0.0;62.0
26641;DHT22;14269;47.358;0.724;2022-12-18T06:28:08;0.0;62.0
26641;DHT22;14269;47.358;0.724;2022-12-18T06:30:40;0.0;62.0
26641;DHT22;14269;47.358;0.724;2022-12-18T06:33:35;0.0;62.0
26641;DHT22;14269;47.358;0.724;2022-12-18T06:36:09;0.0;62.0
26641;DHT22;14269;47.358;0.724;2022-12-18T06:38:56;0.0;62.0
26641;DHT22;14269;47.358;0.724;2022-12-18T06:41:27;0.0;62.0
26641;DHT22;14269;47.358;0.724;2022-12-18T06:44:17;0.0;62.0
26641;DHT22;14269;47.358;0.724;2022-12-18T06:46:49;0.0;62.0
26641;DHT22;14269;47.358;0.724;2022-12-18T06:49:51;0.0;62.0
26641;DHT22;14269;47.358;0.724;2022-12-18T06:52:23;0.0;62.0
26641;DHT22;14269;47.358;0.724;2022-12-18T06:55:19;0.0;63.0
26641;DHT22;14269;47.358;0.724;2022-12-18T06:57:51;0.0;63.0
26641;DHT22;14269;47.358;0.724;2022-12-18T07:00:53;0.0;62.0
26641;DHT22;14269;47.358;0.724;2022-12-18T07:03:25;0.0;62.0
26641;DHT22;14269;47.358;0.724;2022-12-18T07:06:27;0.0;63.0
26641;DHT22;14269;47.358;0.724;2022-12-18T07:08:58;0.0;63.0
26641;DHT22;14269;47.358;0.724;2022-12-18T07:11:53;0.0;63.0
26641;DHT22;14269;47.358;0.724;2022-12-18T07:14:24;0.0;64.0
26641;DHT22;14269;47.358;0.724;2022-12-18T07:17:26;0.0;63.0
26641;DHT22;14269;47.358;0.724;2022-12-18T07:19:58;0.0;63.0
26641;DHT22;14269;47.358;0.724;2022-12-18T07:22:52;0.0;63.0
26641;DHT22;14269;47.358;0.724;2022-12-18T07:25:24;0.0;63.0
26641;DHT22;14269;47.358;0.724;2022-12-18T07:28:25;0.0;63.0
26641;DHT22;14269;47.358;0.724;2022-12-18T07:30:57;0.0;63.0
26641;DHT22;14269;47.358;0.724;2022-12-18T07:33:52;0.0;63.0
26641;DHT22;14269;47.358;0.724;2022-12-18T07:36:23;0.0;63.0
26641;DHT22;14269;47.358;0.724;2022-12-18T07:39:25;0.0;63.0
26641;DHT22;14269;47.358;0.724;2022-12-18T07:43:02;0.0;62.0
26641;DHT22;14269;47.358;0.724;2022-12-18T07:45:43;0.0;62.0
26641;DHT22;14269;47.358;0.724;2022-12-18T07:48:14;0.0;63.0
26641;DHT22;14269;47.358;0.724;2022-12-18T07:50:46;0.0;62.0
26641;DHT22;14269;47.358;0.724;2022-12-18T07:53:18;0.0;62.0
26641;DHT22;14269;47.358;0.724;2022-12-18T07:55:55;0.0;62.0
26641;DHT22;14269;47.358;0.724;2022-12-18T07:58:35;1.0;62.0
26641;DHT22;14269;47.358;0.724;2022-12-18T08:01:27;0.0;62.0
26641;DHT22;14269;47.358;0.724;2022-12-18T08:03:59;1.0;62.0
26641;DHT22;14269;47.358;0.724;2022-12-18T08:07:00;1.0;62.0
26641;DHT22;14269;47.358;0.724;2022-12-18T08:09:32;1.0;62.0
26641;DHT22;14269;47.358;0.724;2022-12-18T08:12:33;1.0;62.0
26641;DHT22;14269;47.358;0.724;2022-12-18T08:15:06;1.0;62.0
26641;DHT22;14269;47.358;0.724;2022-12-18T08:18:00;1.0;62.0
26641;DHT22;14269;47.358;0.724;2022-12-18T08:20:32;1.0;62.0
26641;DHT22;14269;47.358;0.724;2022-12-18T08:23:34;1.0;62.0
26641;DHT22;14269;47.358;0.724;2022-12-18T08:26:06;1.0;62.0
26641;DHT22;14269;47.358;0.724;2022-12-18T08:29:08;1.0;62.0
26641;DHT22;14269;47.358;0.724;2022-12-18T08:31:39;1.0;61.0
26641;DHT22;14269;47.358;0.724;2022-12-18T08:34:40;1.0;61.0
26641;DHT22;14269;47.358;0.724;2022-12-18T08:37:11;1.0;61.0
26641;DHT22;14269;47.358;0.724;2022-12-18T08:40:08;1.0;62.0
26641;DHT22;14269;47.358;0.724;2022-12-18T08:45:30;1.0;62.0
26641;DHT22;14269;47.358;0.724;2022-12-18T08:48:11;1.0;61.0
26641;DHT22;14269;47.358;0.724;2022-12-18T08:50:55;1.0;61.0
26641;DHT22;14269;47.358;0.724;2022-12-18T08:53:31;1.0;61.0
26641;DHT22;14269;47.358;0.724;2022-12-18T08:56:07;2.0;61.0
26641;DHT22;14269;47.358;0.724;2022-12-18T08:58:47;2.0;61.0
26641;DHT22;14269;47.358;0.724;2022-12-18T09:01:28;2.0;61.0
26641;DHT22;14269;47.358;0.724;2022-12-18T09:04:00;2.0;60.0
26641;DHT22;14269;47.358;0.724;2022-12-18T09:07:01;2.0;60.0
26641;DHT22;14269;47.358;0.724;2022-12-18T09:09:33;2.0;60.0
26641;DHT22;14269;47.358;0.724;2022-12-18T09:12:34;2.0;60.0
26641;DHT22;14269;47.358;0.724;2022-12-18T09:15:06;2.0;60.0
26641;DHT22;14269;47.358;0.724;2022-12-18T09:18:07;2.0;59.0
26641;DHT22;14269;47.358;0.724;2022-12-18T09:20:39;2.0;59.0
26641;DHT22;14269;47.358;0.724;2022-12-18T09:23:35;2.0;59.0
26641;DHT22;14269;47.358;0.724;2022-12-18T09:26:07;2.0;58.0
26641;DHT22;14269;47.358;0.724;2022-12-18T09:29:09;2.0;58.0
26641;DHT22;14269;47.358;0.724;2022-12-18T09:31:40;2.0;59.0
26641;DHT22;14269;47.358;0.724;2022-12-18T09:34:41;2.0;58.0
26641;DHT22;14269;47.358;0.724;2022-12-18T09:37:13;2.0;58.0
26641;DHT22;14269;47.358;0.724;2022-12-18T09:40:14;2.0;58.0
26641;DHT22;14269;47.358;0.724;2022-12-18T09:43:01;2.0;58.0
26641;DHT22;14269;47.358;0.724;2022-12-18T09:45:51;2.0;59.0
26641;DHT22;14269;47.358;0.724;2022-12-18T09:48:32;3.0;58.0
26641;DHT22;14269;47.358;0.724;2022-12-18T09:51:23;3.0;58.0
26641;DHT22;14269;47.358;0.724;2022-12-18T09:54:05;3.0;58.0
26641;DHT22;14269;47.358;0.724;2022-12-18T09:56:53;3.0;58.0
26641;DHT22;14269;47.358;0.724;2022-12-18T09:59:27;3.0;58.0
26641;DHT22;14269;47.358;0.724;2022-12-18T10:02:23;3.0;58.0
26641;DHT22;14269;47.358;0.724;2022-12-18T10:05:07;3.0;58.0
26641;DHT22;14269;47.358;0.724;2022-12-18T10:07:52;3.0;58.0
26641;DHT22;14269;47.358;0.724;2022-12-18T10:10:33;3.0;58.0
26641;DHT22;14269;47.358;0.724;2022-12-18T10:13:15;3.0;57.0
26641;DHT22;14269;47.358;0.724;2022-12-18T10:15:58;3.0;57.0
26641;DHT22;14269;47.358;0.724;2022-12-18T10:18:53;3.0;58.0
26641;DHT22;14269;47.358;0.724;2022-12-18T10:21:42;3.0;58.0
26641;DHT22;14269;47.358;0.724;2022-12-18T10:24:21;3.0;59.0
26641;DHT22;14269;47.358;0.724;2022-12-18T10:27:09;3.0;60.0
26641;DHT22;14269;47.358;0.724;2022-12-18T10:29:47;3.0;60.0
26641;DHT22;14269;47.358;0.724;2022-12-18T10:32:21;3.0;60.0
26641;DHT22;14269;47.358;0.724;2022-12-18T10:34:58;3.0;59.0
26641;DHT22;14269;47.358;0.724;2022-12-18T10:37:29;4.0;59.0
26641;DHT22;14269;47.358;0.724;2022-12-18T10:40:12;4.0;59.0
26641;DHT22;14269;47.358;0.724;2022-12-18T10:43:04;4.0;58.0
26641;DHT22;14269;47.358;0.724;2022-12-18T10:45:59;4.0;59.0
26641;DHT22;14269;47.358;0.724;2022-12-18T10:48:40;4.0;58.0
26641;DHT22;14269;47.358;0.724;2022-12-18T10:51:29;4.0;58.0
26641;DHT22;14269;47.358;0.724;2022-12-18T10:54:15;4.0;59.0
26641;DHT22;14269;47.358;0.724;2022-12-18T10:57:14;3.0;60.0
26641;DHT22;14269;47.358;0.724;2022-12-18T10:59:51;3.0;60.0
26641;DHT22;14269;47.358;0.724;2022-12-18T11:02:27;4.0;61.0
26641;DHT22;14269;47.358;0.724;2022-12-18T11:05:25;4.0;59.0
26641;DHT22;14269;47.358;0.724;2022-12-18T11:07:58;4.0;60.0
26641;DHT22;14269;47.358;0.724;2022-12-18T11:10:40;4.0;60.0
26641;DHT22;14269;47.358;0.724;2022-12-18T11:13:20;4.0;61.0
26641;DHT22;14269;47.358;0.724;2022-12-18T11:16:00;4.0;61.0
26641;DHT22;14269;47.358;0.724;2022-12-18T11:18:39;4.0;61.0
26641;DHT22;14269;47.358;0.724;2022-12-18T11:21:12;4.0;60.0
26641;DHT22;14269;47.358;0.724;2022-12-18T11:23:53;4.0;61.0
26641;DHT22;14269;47.358;0.724;2022-12-18T11:26:34;4.0;61.0
26641;DHT22;14269;47.358;0.724;2022-12-18T11:29:17;4.0;60.0
26641;DHT22;14269;47.358;0.724;2022-12-18T11:32:30;4.0;60.0
26641;DHT22;14269;47.358;0.724;2022-12-18T11:35:16;4.0;61.0
26641;DHT22;14269;47.358;0.724;2022-12-18T11:37:54;4.0;62.0
26641;DHT22;14269;47.358;0.724;2022-12-18T11:40:34;4.0;62.0
26641;DHT22;14269;47.358;0.724;2022-12-18T11:43:16;4.0;63.0
26641;DHT22;14269;47.358;0.724;2022-12-18T11:45:56;4.0;63.0
26641;DHT22;14269;47.358;0.724;2022-12-18T11:48:40;4.0;63.0
26641;DHT22;14269;47.358;0.724;2022-12-18T11:51:25;4.0;63.0
26641;DHT22;14269;47.358;0.724;2022-12-18T11:53:59;4.0;63.0
26641;DHT22;14269;47.358;0.724;2022-12-18T11:56:48;4.0;63.0
26641;DHT22;14269;47.358;0.724;2022-12-18T11:59:34;4.0;64.0
26641;DHT22;14269;47.358;0.724;2022-12-18T12:02:29;4.0;64.0
26641;DHT22;14269;47.358;0.724;2022-12-18T12:05:19;5.0;63.0
26641;DHT22;14269;47.358;0.724;2022-12-18T12:08:03;5.0;63.0
26641;DHT22;14269;47.358;0.724;2022-12-18T12:10:48;5.0;64.0
26641;DHT22;14269;47.358;0.724;2022-12-18T12:13:43;5.0;65.0
26641;DHT22;14269;47.358;0.724;2022-12-18T12:16:25;5.0;65.0
26641;DHT22;14269;47.358;0.724;2022-12-18T12:19:12;5.0;66.0
26641;DHT22;14269;47.358;0.724;2022-12-18T12:22:02;5.0;66.0
26641;DHT22;14269;47.358;0.724;2022-12-18T12:24:47;5.0;67.0
26641;DHT22;14269;47.358;0.724;2022-12-18T12:27:36;5.0;67.0
26641;DHT22;14269;47.358;0.724;2022-12-18T12:30:16;5.0;67.0
26641;DHT22;14269;47.358;0.724;2022-12-18T12:33:04;5.0;67.0
26641;DHT22;14269;47.358;0.724;2022-12-18T12:35:49;5.0;68.0
26641;DHT22;14269;47.358;0.724;2022-12-18T12:38:28;5.0;68.0
26641;DHT22;14269;47.358;0.724;2022-12-18T12:43:16;5.0;68.0
26641;DHT22;14269;47.358;0.724;2022-12-18T12:46:10;5.0;69.0
26641;DHT22;14269;47.358;0.724;2022-12-18T12:48:52;5.0;69.0
26641;DHT22;14269;47.358;0.724;2022-12-18T12:51:44;5.0;69.0
26641;DHT22;14269;47.358;0.724;2022-12-18T12:54:25;5.0;69.0
26641;DHT22;14269;47.358;0.724;2022-12-18T12:57:19;5.0;69.0
26641;DHT22;14269;47.358;0.724;2022-12-18T13:00:00;5.0;69.0
26641;DHT22;14269;47.358;0.724;2022-12-18T13:02:52;5.0;69.0
26641;DHT22;14269;47.358;0.724;2022-12-18T13:05:34;5.0;69.0
26641;DHT22;14269;47.358;0.724;2022-12-18T13:08:23;5.0;69.0
26641;DHT22;14269;47.358;0.724;2022-12-18T13:12:56;6.0;69.0
26641;DHT22;14269;47.358;0.724;2022-12-18T13:15:38;5.0;70.0
26641;DHT22;14269;47.358;0.724;2022-12-18T13:18:20;6.0;70.0
26641;DHT22;14269;47.358;0.724;2022-12-18T13:21:07;6.0;69.0
26641;DHT22;14269;47.358;0.724;2022-12-18T13:23:52;6.0;70.0
26641;DHT22;14269;47.358;0.724;2022-12-18T13:26:34;6.0;70.0
26641;DHT22;14269;47.358;0.724;2022-12-18T13:29:40;6.0;70.0
26641;DHT22;14269;47.358;0.724;2022-12-18T13:32:22;6.0;70.0
26641;DHT22;14269;47.358;0.724;2022-12-18T13:36:02;6.0;69.0
26641;DHT22;14269;47.358;0.724;2022-12-18T13:38:40;6.0;70.0
26641;DHT22;14269;47.358;0.724;2022-12-18T13:41:24;6.0;70.0
26641;DHT22;14269;47.358;0.724;2022-12-18T13:44:11;6.0;70.0
26641;DHT22;14269;47.358;0.724;2022-12-18T13:46:53;6.0;69.0
26641;DHT22;14269;47.358;0.724;2022-12-18T13:49:30;6.0;69.0
26641;DHT22;14269;47.358;0.724;2022-12-18T13:52:28;6.0;70.0
26641;DHT22;14269;47.358;0.724;2022-12-18T13:55:16;6.0;70.0
26641;DHT22;14269;47.358;0.724;2022-12-18T13:58:03;7.0;70.0
26641;DHT22;14269;47.358;0.724;2022-12-18T14:00:44;7.0;70.0
26641;DHT22;14269;47.358;0.724;2022-12-18T14:03:27;7.0;70.0
26641;DHT22;14269;47.358;0.724;2022-12-18T14:06:08;7.0;70.0
26641;DHT22;14269;47.358;0.724;2022-12-18T14:08:58;7.0;70.0
26641;DHT22;14269;47.358;0.724;2022-12-18T14:11:30;7.0;70.0
26641;DHT22;14269;47.358;0.724;2022-12-18T14:14:31;7.0;70.0
26641;DHT22;14269;47.358;0.724;2022-12-18T14:17:03;7.0;70.0
26641;DHT22;14269;47.358;0.724;2022-12-18T14:19:58;7.0;71.0
26641;DHT22;14269;47.358;0.724;2022-12-18T14:22:30;7.0;71.0
26641;DHT22;14269;47.358;0.724;2022-12-18T14:25:21;7.0;71.0
26641;DHT22;14269;47.358;0.724;2022-12-18T14:28:07;7.0;72.0
26641;DHT22;14269;47.358;0.724;2022-12-18T14:30:54;7.0;72.0
26641;DHT22;14269;47.358;0.724;2022-12-18T14:33:37;7.0;73.0
26641;DHT22;14269;47.358;0.724;2022-12-18T14:36:27;6.0;73.0
26641;DHT22;14269;47.358;0.724;2022-12-18T14:39:17;7.0;74.0
26641;DHT22;14269;47.358;0.724;2022-12-18T14:41:52;7.0;73.0
26641;DHT22;14269;47.358;0.724;2022-12-18T14:44:24;7.0;73.0
26641;DHT22;14269;47.358;0.724;2022-12-18T14:47:25;7.0;72.0
26641;DHT22;14269;47.358;0.724;2022-12-18T14:49:57;7.0;72.0
26641;DHT22;14269;47.358;0.724;2022-12-18T14:52:58;7.0;71.0
26641;DHT22;14269;47.358;0.724;2022-12-18T14:55:30;7.0;71.0
26641;DHT22;14269;47.358;0.724;2022-12-18T14:58:25;7.0;72.0
26641;DHT22;14269;47.358;0.724;2022-12-18T15:00:57;7.0;72.0
26641;DHT22;14269;47.358;0.724;2022-12-18T15:03:59;7.0;72.0
26641;DHT22;14269;47.358;0.724;2022-12-18T15:06:40;7.0;71.0
26641;DHT22;14269;47.358;0.724;2022-12-18T15:09:30;7.0;71.0
26641;DHT22;14269;47.358;0.724;2022-12-18T15:12:02;7.0;71.0
26641;DHT22;14269;47.358;0.724;2022-12-18T15:14:44;7.0;71.0
26641;DHT22;14269;47.358;0.724;2022-12-18T15:17:18;7.0;71.0
26641;DHT22;14269;47.358;0.724;2022-12-18T15:20:17;7.0;71.0
26641;DHT22;14269;47.358;0.724;2022-12-18T15:22:48;7.0;70.0
26641;DHT22;14269;47.358;0.724;2022-12-18T15:25:55;7.0;70.0
26641;DHT22;14269;47.358;0.724;2022-12-18T15:28:34;7.0;70.0
26641;DHT22;14269;47.358;0.724;2022-12-18T15:31:28;7.0;69.0
26641;DHT22;14269;47.358;0.724;2022-12-18T15:34:12;7.0;70.0
26641;DHT22;14269;47.358;0.724;2022-12-18T15:36:50;7.0;70.0
26641;DHT22;14269;47.358;0.724;2022-12-18T15:39:21;7.0;70.0
26641;DHT22;14269;47.358;0.724;2022-12-18T15:44:32;7.0;70.0
26641;DHT22;14269;47.358;0.724;2022-12-18T15:47:09;8.0;70.0
26641;DHT22;14269;47.358;0.724;2022-12-18T15:49:45;8.0;70.0
26641;DHT22;14269;47.358;0.724;2022-12-18T15:52:25;7.0;70.0
26641;DHT22;14269;47.358;0.724;2022-12-18T15:57:29;7.0;71.0
26641;DHT22;14269;47.358;0.724;2022-12-18T16:00:01;7.0;71.0
26641;DHT22;14269;47.358;0.724;2022-12-18T16:02:32;7.0;71.0
26641;DHT22;14269;47.358;0.724;2022-12-18T16:05:09;7.0;73.0
26641;DHT22;14269;47.358;0.724;2022-12-18T16:07:46;7.0;73.0
26641;DHT22;14269;47.358;0.724;2022-12-18T16:10:20;7.0;74.0
26641;DHT22;14269;47.358;0.724;2022-12-18T16:12:52;7.0;74.0
26641;DHT22;14269;47.358;0.724;2022-12-18T16:15:22;7.0;74.0
26641;DHT22;14269;47.358;0.724;2022-12-18T16:17:54;7.0;74.0
26641;DHT22;14269;47.358;0.724;2022-12-18T16:20:25;7.0;74.0
26641;DHT22;14269;47.358;0.724;2022-12-18T16:22:57;7.0;74.0
26641;DHT22;14269;47.358;0.724;2022-12-18T16:25:48;7.0;73.0
26641;DHT22;14269;47.358;0.724;2022-12-18T16:28:19;7.0;73.0
26641;DHT22;14269;47.358;0.724;2022-12-18T16:31:21;7.0;72.0
26641;DHT22;14269;47.358;0.724;2022-12-18T16:34:09;7.0;72.0
26641;DHT22;14269;47.358;0.724;2022-12-18T16:36:48;7.0;72.0
26641;DHT22;14269;47.358;0.724;2022-12-18T16:39:20;7.0;71.0
26641;DHT22;14269;47.358;0.724;2022-12-18T16:42:14;7.0;71.0
26641;DHT22;14269;47.358;0.724;2022-12-18T16:44:51;7.0;71.0
26641;DHT22;14269;47.358;0.724;2022-12-18T16:47:31;7.0;71.0
26641;DHT22;14269;47.358;0.724;2022-12-18T16:50:03;7.0;70.0
26641;DHT22;14269;47.358;0.724;2022-12-18T16:53:05;7.0;70.0
26641;DHT22;14269;47.358;0.724;2022-12-18T16:55:36;7.0;69.0
26641;DHT22;14269;47.358;0.724;2022-12-18T16:58:30;7.0;69.0
26641;DHT22;14269;47.358;0.724;2022-12-18T17:01:06;7.0;68.0
26641;DHT22;14269;47.358;0.724;2022-12-18T17:03:52;7.0;68.0
26641;DHT22;14269;47.358;0.724;2022-12-18T17:06:34;7.0;68.0
26641;DHT22;14269;47.358;0.724;2022-12-18T17:09:24;7.0;67.0
26641;DHT22;14269;47.358;0.724;2022-12-18T17:11:55;7.0;66.0
26641;DHT22;14269;47.358;0.724;2022-12-18T17:14:56;7.0;66.0
26641;DHT22;14269;47.358;0.724;2022-12-18T17:17:28;7.0;66.0
26641;DHT22;14269;47.358;0.724;2022-12-18T17:20:23;7.0;65.0
26641;DHT22;14269;47.358;0.724;2022-12-18T17:22:57;8.0;66.0
26641;DHT22;14269;47.358;0.724;2022-12-18T17:25:58;8.0;65.0
26641;DHT22;14269;47.358;0.724;2022-12-18T17:28:29;8.0;65.0
26641;DHT22;14269;47.358;0.724;2022-12-18T17:31:31;8.0;65.0
26641;DHT22;14269;47.358;0.724;2022-12-18T17:34:03;8.0;65.0
26641;DHT22;14269;47.358;0.724;2022-12-18T17:37:03;8.0;64.0
26641;DHT22;14269;47.358;0.724;2022-12-18T17:39:35;8.0;65.0
26641;DHT22;14269;47.358;0.724;2022-12-18T17:42:31;8.0;66.0
26641;DHT22;14269;47.358;0.724;2022-12-18T17:45:04;8.0;68.0
26641;DHT22;14269;47.358;0.724;2022-12-18T17:48:05;8.0;69.0
26641;DHT22;14269;47.358;0.724;2022-12-18T17:50:46;8.0;69.0
26641;DHT22;14269;47.358;0.724;2022-12-18T17:53:38;7.0;70.0
26641;DHT22;14269;47.358;0.724;2022-12-18T17:56:11;7.0;70.0
26641;DHT22;14269;47.358;0.724;2022-12-18T17:59:10;8.0;70.0
26641;DHT22;14269;47.358;0.724;2022-12-18T18:01:42;8.0;70.0
26641;DHT22;14269;47.358;0.724;2022-12-18T18:04:43;8.0;68.0
26641;DHT22;14269;47.358;0.724;2022-12-18T18:07:15;8.0;67.0
26641;DHT22;14269;47.358;0.724;2022-12-18T18:10:16;8.0;66.0
26641;DHT22;14269;47.358;0.724;2022-12-18T18:15:10;8.0;66.0
26641;DHT22;14269;47.358;0.724;2022-12-18T18:17:50;8.0;66.0
26641;DHT22;14269;47.358;0.724;2022-12-18T18:20:22;8.0;65.0